Time;durP1;ratioP1;P1;durP2;ratioP2;P2;SDS_P1;SDS_P2;PMS_P1;PMS_P2;Temp;Humidity;BMP_temperature;BMP_pressure;BME280_temperature;BME280_humidity;BME280_pressure;Samples;Min_cycle;Max_cycle;Signal;HPM_P1;HPM_P2
2021/12/19 00:00:29;;;;;;;7.32;5.80;;;;;;;;;;5056644;28;24411;-57
2021/12/19 00:11:13;;;;;;;8.13;5.28;;;;;;;;;;5039881;28;24461;-58
2021/12/19 00:13:40;;;;;;;6.60;5.20;;;;;;;;;;5052310;28;24468;-57
2021/12/19 00:16:06;;;;;;;5.57;4.68;;;;;;;;;;5060070;28;24453;-57
2021/12/19 00:18:31;;;;;;;7.93;5.17;;;;;;;;;;5051274;28;24447;-57
2021/12/19 00:20:56;;;;;;;7.10;4.60;;;;;;;;;;5049351;28;24449;-57
2021/12/19 00:23:21;;;;;;;6.30;5.30;;;;;;;;;;5056499;28;24421;-57
2021/12/19 00:25:46;;;;;;;7.40;4.60;;;;;;;;;;5060159;28;24469;-57
2021/12/19 00:28:11;;;;;;;5.35;4.53;;;;;;;;;;5059223;28;24418;-57
2021/12/19 00:30:37;;;;;;;6.37;4.50;;;;;;;;;;5054388;28;24415;-57
2021/12/19 00:33:02;;;;;;;5.43;4.80;;;;;;;;;;5062765;28;24528;-57
2021/12/19 00:35:27;;;;;;;6.50;4.60;;;;;;;;;;5060377;28;24433;-58
2021/12/19 00:37:53;;;;;;;6.63;5.30;;;;;;;;;;5050531;28;24407;-57
2021/12/19 00:40:19;;;;;;;6.50;5.17;;;;;;;;;;5063092;28;24462;-57
2021/12/19 00:42:50;;;;;;;6.20;5.50;;;;;;;;;;5047684;28;24807;-57
2021/12/19 00:45:16;;;;;;;6.45;5.45;;;;;;;;;;5048531;28;24441;-59
2021/12/19 00:47:44;;;;;;;6.00;5.40;;;;;;;;;;5062235;28;24510;-57
2021/12/19 00:50:10;;;;;;;7.60;6.20;;;;;;;;;;5062000;28;24415;-57
2021/12/19 00:52:35;;;;;;;6.53;5.83;;;;;;;;;;5062931;28;25022;-57
2021/12/19 00:55:00;;;;;;;6.20;5.50;;;;;;;;;;5058416;28;24505;-57
2021/12/19 00:57:25;;;;;;;6.50;5.50;;;;;;;;;;5055843;28;24423;-57
2021/12/19 00:59:50;;;;;;;8.87;6.27;;;;;;;;;;5055109;28;24823;-57
2021/12/19 01:02:16;;;;;;;6.43;5.50;;;;;;;;;;5061297;28;24725;-56
2021/12/19 01:04:41;;;;;;;8.80;6.43;;;;;;;;;;5063758;28;24460;-57
2021/12/19 01:07:06;;;;;;;6.80;5.43;;;;;;;;;;5051902;28;24481;-57
2021/12/19 01:09:31;;;;;;;8.03;6.07;;;;;;;;;;5059078;28;24394;-57
2021/12/19 01:11:56;;;;;;;7.33;6.03;;;;;;;;;;5057825;28;24421;-57
2021/12/19 01:14:22;;;;;;;6.70;6.00;;;;;;;;;;5061129;28;24769;-57
2021/12/19 01:16:47;;;;;;;6.60;5.83;;;;;;;;;;5062399;28;24446;-57
2021/12/19 01:19:12;;;;;;;7.43;6.30;;;;;;;;;;5059479;28;24963;-57
2021/12/19 01:21:37;;;;;;;6.90;6.20;;;;;;;;;;5047120;28;24480;-57
2021/12/19 01:24:03;;;;;;;8.10;7.00;;;;;;;;;;5049966;28;24781;-57
2021/12/19 01:26:28;;;;;;;9.47;6.93;;;;;;;;;;5058738;28;24434;-57
2021/12/19 01:28:53;;;;;;;9.00;7.10;;;;;;;;;;5054359;28;24671;-56
2021/12/19 01:31:18;;;;;;;9.07;7.10;;;;;;;;;;5052165;28;24435;-57
2021/12/19 01:33:43;;;;;;;6.80;6.20;;;;;;;;;;5044724;28;24474;-57
2021/12/19 01:36:09;;;;;;;8.35;7.45;;;;;;;;;;5044984;28;24968;-57
2021/12/19 01:38:34;;;;;;;8.43;6.77;;;;;;;;;;5050636;28;24875;-57
2021/12/19 01:40:59;;;;;;;7.50;6.40;;;;;;;;;;5052832;28;24426;-57
2021/12/19 01:43:25;;;;;;;9.30;6.63;;;;;;;;;;5050246;28;24424;-57
2021/12/19 01:45:51;;;;;;;8.37;6.60;;;;;;;;;;5058277;28;24534;-57
2021/12/19 01:48:16;;;;;;;8.97;7.00;;;;;;;;;;5053201;28;24415;-57
2021/12/19 01:50:42;;;;;;;8.07;6.60;;;;;;;;;;5052471;28;24549;-57
2021/12/19 01:53:08;;;;;;;8.00;6.47;;;;;;;;;;5057268;28;24775;-57
2021/12/19 01:55:33;;;;;;;7.20;6.50;;;;;;;;;;5058109;28;24426;-57
2021/12/19 01:57:59;;;;;;;7.65;6.85;;;;;;;;;;5049116;28;24426;-58
2021/12/19 02:00:32;;;;;;;8.63;6.50;;;;;;;;;;5051894;28;25021;-57
2021/12/19 02:02:57;;;;;;;8.30;7.40;;;;;;;;;;5050172;28;24476;-57
2021/12/19 02:05:23;;;;;;;8.27;6.97;;;;;;;;;;5057533;28;24981;-57
2021/12/19 02:07:49;;;;;;;8.00;7.20;;;;;;;;;;5054659;28;24418;-57
2021/12/19 02:10:19;;;;;;;9.97;8.07;;;;;;;;;;5054051;28;24411;-57
2021/12/19 02:12:45;;;;;;;8.68;7.78;;;;;;;;;;5062172;28;24501;-57
2021/12/19 02:15:11;;;;;;;8.85;7.95;;;;;;;;;;5058458;28;24443;-58
2021/12/19 02:17:37;;;;;;;9.27;8.37;;;;;;;;;;5058266;28;24437;-57
2021/12/19 02:20:02;;;;;;;10.70;9.50;;;;;;;;;;5058137;28;24431;-57
2021/12/19 02:22:28;;;;;;;9.65;8.70;;;;;;;;;;5059947;28;24461;-57
2021/12/19 02:24:54;;;;;;;9.10;8.10;;;;;;;;;;5049801;28;24419;-57
2021/12/19 02:27:24;;;;;;;9.48;7.80;;;;;;;;;;5042182;28;24513;-57
2021/12/19 02:29:49;;;;;;;8.38;7.55;;;;;;;;;;5061205;28;24422;-57
2021/12/19 02:32:14;;;;;;;9.50;8.60;;;;;;;;;;5045244;28;24820;-57
2021/12/19 02:34:43;;;;;;;9.47;8.40;;;;;;;;;;5055060;28;24526;-57
2021/12/19 02:37:31;;;;;;;8.13;7.23;;;;;;;;;;5054911;28;24409;-57
2021/12/19 02:48:10;;;;;;;9.00;8.10;;;;;;;;;;5055597;28;24426;-57
2021/12/19 02:50:36;;;;;;;9.10;7.50;;;;;;;;;;5051798;28;24419;-57
2021/12/19 02:53:01;;;;;;;8.60;7.70;;;;;;;;;;5057756;28;24414;-57
2021/12/19 02:55:26;;;;;;;9.73;8.73;;;;;;;;;;5059623;28;24411;-57
2021/12/19 02:57:52;;;;;;;8.98;8.07;;;;;;;;;;5061813;28;24536;-58
2021/12/19 03:00:19;;;;;;;8.23;7.37;;;;;;;;;;5045127;28;24557;-57
2021/12/19 03:02:44;;;;;;;9.57;8.50;;;;;;;;;;5045898;28;24474;-57
2021/12/19 03:05:10;;;;;;;8.87;8.07;;;;;;;;;;5056517;28;24434;-57
2021/12/19 03:07:40;;;;;;;9.60;8.40;;;;;;;;;;5049983;28;25007;-57
2021/12/19 03:17:59;;;;;;;7.88;7.18;;;;;;;;;;5053080;28;24545;-58
2021/12/19 03:20:29;;;;;;;8.32;7.60;;;;;;;;;;5051654;28;24430;-57
2021/12/19 03:22:54;;;;;;;8.98;8.07;;;;;;;;;;5059174;28;24411;-57
2021/12/19 03:25:19;;;;;;;7.97;7.17;;;;;;;;;;5057120;28;24667;-58
2021/12/19 03:27:45;;;;;;;7.83;7.13;;;;;;;;;;5043651;28;24415;-57
2021/12/19 03:30:10;;;;;;;7.90;7.20;;;;;;;;;;5056299;28;24908;-58
2021/12/19 03:32:35;;;;;;;8.50;7.80;;;;;;;;;;5046473;28;24412;-57
2021/12/19 03:35:01;;;;;;;7.90;7.10;;;;;;;;;;5055798;28;24431;-57
2021/12/19 03:37:26;;;;;;;8.15;7.45;;;;;;;;;;5050134;28;24426;-57
2021/12/19 03:40:08;;;;;;;7.78;7.07;;;;;;;;;;5057331;28;24421;-57
2021/12/19 03:42:35;;;;;;;8.65;7.85;;;;;;;;;;5054825;28;24419;-57
2021/12/19 03:45:00;;;;;;;9.30;7.32;;;;;;;;;;5056083;28;24446;-57
2021/12/19 03:47:26;;;;;;;8.10;7.40;;;;;;;;;;5063769;28;24492;-57
2021/12/19 03:49:51;;;;;;;7.83;7.03;;;;;;;;;;5059122;28;24472;-58
2021/12/19 03:52:16;;;;;;;8.20;7.40;;;;;;;;;;5058873;28;24772;-57
2021/12/19 03:54:41;;;;;;;8.20;7.40;;;;;;;;;;5054123;28;24422;-57
2021/12/19 03:57:06;;;;;;;7.80;7.10;;;;;;;;;;5053771;28;24426;-57
2021/12/19 03:59:32;;;;;;;7.73;7.03;;;;;;;;;;5058566;28;24410;-57
2021/12/19 04:01:57;;;;;;;7.50;6.63;;;;;;;;;;5053313;28;24423;-57
2021/12/19 04:04:22;;;;;;;7.30;6.50;;;;;;;;;;5056075;28;24805;-57
2021/12/19 04:06:47;;;;;;;6.93;6.10;;;;;;;;;;5052256;28;24427;-57
2021/12/19 04:09:12;;;;;;;7.83;7.03;;;;;;;;;;5055276;28;24526;-57
2021/12/19 04:11:37;;;;;;;7.28;6.57;;;;;;;;;;5058896;28;24493;-57
2021/12/19 04:14:03;;;;;;;8.50;7.00;;;;;;;;;;5052060;28;24405;-58
2021/12/19 04:16:28;;;;;;;8.00;7.17;;;;;;;;;;5046950;28;24474;-57
2021/12/19 04:18:53;;;;;;;8.32;7.53;;;;;;;;;;5058432;28;24461;-57
2021/12/19 04:21:18;;;;;;;9.18;7.85;;;;;;;;;;5054503;28;24454;-57
2021/12/19 04:23:44;;;;;;;9.80;8.00;;;;;;;;;;5052101;28;24975;-57
2021/12/19 04:26:09;;;;;;;10.37;8.60;;;;;;;;;;5055938;28;24530;-57
2021/12/19 04:28:34;;;;;;;8.93;8.03;;;;;;;;;;5055563;28;24963;-57
2021/12/19 04:31:00;;;;;;;8.80;7.97;;;;;;;;;;5048880;28;25219;-57
2021/12/19 04:33:28;;;;;;;9.13;8.27;;;;;;;;;;5065094;28;24456;-58
2021/12/19 04:35:59;;;;;;;8.60;7.70;;;;;;;;;;5058093;28;24558;-57
2021/12/19 04:41:49;;;;;;;7.88;7.22;;;;;;;;;;5043313;28;24970;-57
2021/12/19 04:52:53;;;;;;;7.68;6.75;;;;;;;;;;5051991;28;24506;-57
2021/12/19 04:57:52;;;;;;;8.90;7.40;;;;;;;;;;5057707;28;25032;-57
2021/12/19 05:00:22;;;;;;;8.15;7.30;;;;;;;;;;5048297;28;24423;-57
2021/12/19 05:05:30;;;;;;;8.00;7.25;;;;;;;;;;5059063;28;24468;-60
2021/12/19 05:15:52;;;;;;;8.97;7.60;;;;;;;;;;5063670;28;24423;-57
2021/12/19 05:18:19;;;;;;;9.87;8.27;;;;;;;;;;5051555;28;24422;-57
2021/12/19 05:20:54;;;;;;;11.50;8.40;;;;;;;;;;5047021;28;24415;-57
2021/12/19 05:23:36;;;;;;;8.52;7.72;;;;;;;;;;5055191;28;24422;-57
2021/12/19 05:26:02;;;;;;;8.27;7.47;;;;;;;;;;5048984;28;24467;-57
2021/12/19 05:28:28;;;;;;;8.52;7.65;;;;;;;;;;5043532;28;24506;-57
2021/12/19 05:30:53;;;;;;;7.73;6.90;;;;;;;;;;5053603;28;24544;-57
2021/12/19 05:33:18;;;;;;;8.20;7.40;;;;;;;;;;5047230;28;24488;-57
2021/12/19 05:46:31;;;;;;;6.25;5.65;;;;;;;;;;5059857;28;24441;-56
2021/12/19 05:48:56;;;;;;;8.10;6.90;;;;;;;;;;5048748;28;24944;-57
2021/12/19 05:51:21;;;;;;;7.40;6.70;;;;;;;;;;5062836;28;24476;-57
2021/12/19 05:53:46;;;;;;;7.55;6.78;;;;;;;;;;5059985;28;24427;-57
2021/12/19 05:56:11;;;;;;;7.33;6.63;;;;;;;;;;5056754;28;24765;-57
2021/12/19 05:58:36;;;;;;;7.78;6.97;;;;;;;;;;5055142;28;24429;-57
2021/12/19 06:01:02;;;;;;;7.78;7.00;;;;;;;;;;5057629;28;24447;-57
2021/12/19 06:03:27;;;;;;;7.77;7.00;;;;;;;;;;5063165;28;24415;-57
2021/12/19 06:05:52;;;;;;;8.45;7.30;;;;;;;;;;5058414;28;24423;-57
2021/12/19 06:08:17;;;;;;;8.50;7.60;;;;;;;;;;5051015;28;24929;-57
2021/12/19 06:10:42;;;;;;;8.20;7.40;;;;;;;;;;5055552;28;24418;-57
2021/12/19 06:13:08;;;;;;;9.03;8.13;;;;;;;;;;5051815;28;24838;-57
2021/12/19 06:15:35;;;;;;;8.80;7.90;;;;;;;;;;5058343;28;24419;-57
2021/12/19 06:18:00;;;;;;;8.98;8.18;;;;;;;;;;5044845;28;24407;-57
2021/12/19 06:20:25;;;;;;;10.50;8.10;;;;;;;;;;5061140;28;25422;-57
2021/12/19 06:22:50;;;;;;;8.32;7.53;;;;;;;;;;5060251;28;24460;-57
2021/12/19 06:25:15;;;;;;;9.35;8.35;;;;;;;;;;5053628;28;24505;-57
2021/12/19 06:27:41;;;;;;;8.75;7.95;;;;;;;;;;5056059;28;24439;-57
2021/12/19 06:30:07;;;;;;;8.70;7.80;;;;;;;;;;5047271;28;24773;-58
2021/12/19 06:32:32;;;;;;;9.25;8.20;;;;;;;;;;5047768;28;24460;-59
2021/12/19 06:34:59;;;;;;;8.97;8.17;;;;;;;;;;5050081;28;24852;-58
2021/12/19 06:37:24;;;;;;;9.38;8.32;;;;;;;;;;5049876;28;24418;-58
2021/12/19 06:39:50;;;;;;;9.30;8.40;;;;;;;;;;5055228;28;24472;-57
2021/12/19 06:42:15;;;;;;;9.07;8.10;;;;;;;;;;5060423;28;24418;-57
2021/12/19 06:44:41;;;;;;;9.50;8.60;;;;;;;;;;5061862;28;24411;-57
2021/12/19 06:47:06;;;;;;;9.63;8.63;;;;;;;;;;5061376;28;24426;-58
2021/12/19 06:49:31;;;;;;;8.70;7.90;;;;;;;;;;5059847;28;24405;-58
2021/12/19 06:51:56;;;;;;;8.83;7.93;;;;;;;;;;5051603;28;25029;-58
2021/12/19 06:54:22;;;;;;;9.47;8.57;;;;;;;;;;5054836;28;24429;-57
2021/12/19 06:56:47;;;;;;;8.97;8.07;;;;;;;;;;5061511;28;24430;-57
2021/12/19 06:59:12;;;;;;;9.30;8.40;;;;;;;;;;5059327;28;24398;-57
2021/12/19 07:01:38;;;;;;;9.43;8.53;;;;;;;;;;5051223;28;24415;-59
2021/12/19 07:04:03;;;;;;;9.00;8.20;;;;;;;;;;5052175;28;24425;-58
2021/12/19 07:06:28;;;;;;;9.20;8.40;;;;;;;;;;5054300;28;24426;-58
2021/12/19 07:08:53;;;;;;;9.43;8.50;;;;;;;;;;5046154;28;24415;-58
2021/12/19 07:11:18;;;;;;;8.80;8.00;;;;;;;;;;5060428;28;25294;-58
2021/12/19 07:13:44;;;;;;;8.73;7.97;;;;;;;;;;5061466;28;24476;-58
2021/12/19 07:16:09;;;;;;;10.27;9.27;;;;;;;;;;5059969;28;24416;-59
2021/12/19 07:18:36;;;;;;;10.13;9.13;;;;;;;;;;5058326;28;24417;-58
2021/12/19 07:21:01;;;;;;;11.00;9.20;;;;;;;;;;5053042;28;24502;-58
2021/12/19 07:23:27;;;;;;;10.27;9.27;;;;;;;;;;5065351;28;24537;-58
2021/12/19 07:25:52;;;;;;;9.95;8.95;;;;;;;;;;5065876;28;24846;-58
2021/12/19 07:28:17;;;;;;;9.32;8.43;;;;;;;;;;5061414;28;24947;-58
2021/12/19 07:30:43;;;;;;;10.70;9.20;;;;;;;;;;5059750;28;24438;-58
2021/12/19 07:33:09;;;;;;;9.73;8.82;;;;;;;;;;5046313;28;24410;-58
2021/12/19 07:35:38;;;;;;;10.98;9.77;;;;;;;;;;5059497;28;24438;-58
2021/12/19 07:38:04;;;;;;;9.73;8.70;;;;;;;;;;5052575;28;24411;-59
2021/12/19 07:40:35;;;;;;;9.80;8.80;;;;;;;;;;5060411;28;24426;-59
2021/12/19 07:43:03;;;;;;;9.73;8.82;;;;;;;;;;5051276;28;24437;-58
2021/12/19 07:45:28;;;;;;;10.50;9.50;;;;;;;;;;5055099;28;25047;-58
2021/12/19 07:47:54;;;;;;;10.15;9.05;;;;;;;;;;5056758;28;24423;-58
2021/12/19 07:50:20;;;;;;;11.13;10.02;;;;;;;;;;5059048;28;24501;-59
2021/12/19 07:52:45;;;;;;;10.25;9.15;;;;;;;;;;5064713;28;25016;-58
2021/12/19 07:55:10;;;;;;;9.80;8.80;;;;;;;;;;5050843;28;24476;-58
2021/12/19 07:57:36;;;;;;;10.15;9.13;;;;;;;;;;5058517;28;24432;-58
2021/12/19 08:00:01;;;;;;;11.13;8.90;;;;;;;;;;5059433;28;24629;-58
2021/12/19 08:02:27;;;;;;;11.02;9.55;;;;;;;;;;5065523;28;24415;-58
2021/12/19 08:04:52;;;;;;;12.73;9.55;;;;;;;;;;5049995;28;24422;-58
2021/12/19 08:07:22;;;;;;;9.50;8.50;;;;;;;;;;5041997;28;25300;-58
2021/12/19 08:10:11;;;;;;;9.88;8.88;;;;;;;;;;5064208;28;24475;-58
2021/12/19 08:12:33;;;;;;;10.60;9.50;;;;;;;;;;5047771;28;24554;-58
2021/12/19 08:14:58;;;;;;;9.53;8.63;;;;;;;;;;5060346;28;24522;-59
2021/12/19 08:17:23;;;;;;;10.10;9.10;;;;;;;;;;5063520;28;24434;-58
2021/12/19 08:19:49;;;;;;;10.40;9.40;;;;;;;;;;5058622;28;24517;-58
2021/12/19 08:22:14;;;;;;;9.85;8.95;;;;;;;;;;5050413;28;24430;-58
2021/12/19 08:24:41;;;;;;;9.53;8.63;;;;;;;;;;5059508;28;24419;-59
2021/12/19 08:27:06;;;;;;;10.80;9.80;;;;;;;;;;5063024;28;24792;-58
2021/12/19 08:29:31;;;;;;;10.60;9.53;;;;;;;;;;5065832;28;24916;-58
2021/12/19 08:31:56;;;;;;;10.02;9.13;;;;;;;;;;5058414;28;25038;-58
2021/12/19 08:34:21;;;;;;;10.10;9.00;;;;;;;;;;5049513;28;24441;-59
2021/12/19 08:36:46;;;;;;;10.20;9.20;;;;;;;;;;5060918;28;24567;-58
2021/12/19 08:39:12;;;;;;;9.25;8.45;;;;;;;;;;5054785;28;24556;-59
2021/12/19 08:41:38;;;;;;;10.68;9.68;;;;;;;;;;5052979;28;24461;-58
2021/12/19 08:44:03;;;;;;;10.97;9.87;;;;;;;;;;5045129;28;24948;-58
2021/12/19 08:46:31;;;;;;;20.90;17.47;;;;;;;;;;5041452;28;24431;-58
2021/12/19 08:48:57;;;;;;;18.30;15.40;;;;;;;;;;5041500;28;25327;-58
2021/12/19 08:51:22;;;;;;;11.20;10.10;;;;;;;;;;5062674;28;24394;-57
2021/12/19 08:53:47;;;;;;;12.80;11.30;;;;;;;;;;5064586;28;25238;-58
2021/12/19 08:56:12;;;;;;;13.15;11.85;;;;;;;;;;5063612;28;24826;-57
2021/12/19 08:58:37;;;;;;;13.30;11.60;;;;;;;;;;5064890;28;24398;-58
2021/12/19 09:01:03;;;;;;;14.52;13.13;;;;;;;;;;5058789;28;24889;-57
2021/12/19 09:03:29;;;;;;;19.30;17.30;;;;;;;;;;5046493;28;24473;-57
2021/12/19 09:05:54;;;;;;;20.13;17.93;;;;;;;;;;5044649;28;24426;-58
2021/12/19 09:08:19;;;;;;;14.60;13.10;;;;;;;;;;5040945;28;24430;-57
2021/12/19 09:10:44;;;;;;;11.93;10.73;;;;;;;;;;5039527;28;25297;-57
2021/12/19 09:13:10;;;;;;;13.10;11.55;;;;;;;;;;5045702;28;24507;-58
2021/12/19 09:15:35;;;;;;;11.33;10.23;;;;;;;;;;5053308;28;24780;-57
2021/12/19 09:18:00;;;;;;;12.50;11.20;;;;;;;;;;5060281;28;24422;-57
2021/12/19 09:20:25;;;;;;;11.77;10.67;;;;;;;;;;5058026;28;24480;-59
2021/12/19 09:22:51;;;;;;;22.73;20.30;;;;;;;;;;5048946;28;24471;-58
2021/12/19 09:25:16;;;;;;;12.23;11.07;;;;;;;;;;5041531;28;25056;-59
2021/12/19 09:27:41;;;;;;;15.70;14.20;;;;;;;;;;5055773;28;24471;-59
2021/12/19 09:30:07;;;;;;;14.18;12.68;;;;;;;;;;5046712;28;24415;-59
2021/12/19 09:32:32;;;;;;;16.60;15.00;;;;;;;;;;5040503;28;24419;-58
2021/12/19 09:34:57;;;;;;;11.50;10.50;;;;;;;;;;5047611;28;24832;-58
2021/12/19 09:37:22;;;;;;;12.07;10.97;;;;;;;;;;5051134;28;24494;-59
2021/12/19 09:39:50;;;;;;;10.70;9.80;;;;;;;;;;5052032;28;24773;-58
2021/12/19 09:42:19;;;;;;;11.00;10.05;;;;;;;;;;5041364;28;24494;-59
2021/12/19 09:44:44;;;;;;;10.50;9.50;;;;;;;;;;5056427;28;24419;-59
2021/12/19 09:47:09;;;;;;;10.40;9.40;;;;;;;;;;5058962;28;24487;-59
2021/12/19 09:49:35;;;;;;;10.20;9.20;;;;;;;;;;5056605;28;24832;-59
2021/12/19 09:52:05;;;;;;;11.02;9.48;;;;;;;;;;5060703;28;25190;-59
2021/12/19 09:54:30;;;;;;;10.82;9.73;;;;;;;;;;5062494;28;24422;-59
2021/12/19 09:56:55;;;;;;;9.47;8.60;;;;;;;;;;5063051;28;24445;-58
2021/12/19 09:59:21;;;;;;;9.00;8.20;;;;;;;;;;5047776;28;24418;-59
2021/12/19 10:01:47;;;;;;;9.35;8.45;;;;;;;;;;5059719;28;24429;-59
2021/12/19 10:04:26;;;;;;;10.52;8.32;;;;;;;;;;5044175;28;25009;-59
2021/12/19 10:07:18;;;;;;;9.52;8.63;;;;;;;;;;5054072;28;24504;-58
2021/12/19 10:10:00;;;;;;;9.30;8.40;;;;;;;;;;5041917;28;25023;-59
2021/12/19 10:14:59;;;;;;;10.20;9.30;;;;;;;;;;5051041;28;24606;-60
2021/12/19 10:17:24;;;;;;;9.40;8.50;;;;;;;;;;5059704;28;25004;-60
2021/12/19 10:19:51;;;;;;;10.10;9.17;;;;;;;;;;5041317;28;24522;-59
2021/12/19 10:22:23;;;;;;;9.70;8.80;;;;;;;;;;5043433;28;24465;-59
2021/12/19 10:24:48;;;;;;;10.00;9.10;;;;;;;;;;5043022;28;24457;-59
2021/12/19 10:27:29;;;;;;;8.90;8.10;;;;;;;;;;5037763;28;24945;-59
2021/12/19 10:29:54;;;;;;;8.75;7.93;;;;;;;;;;5054212;28;24411;-60
2021/12/19 10:32:20;;;;;;;8.30;7.50;;;;;;;;;;5062832;28;24448;-59
2021/12/19 10:34:45;;;;;;;9.53;8.60;;;;;;;;;;5061834;28;24435;-59
2021/12/19 10:37:10;;;;;;;8.70;8.00;;;;;;;;;;5057317;28;24819;-59
2021/12/19 10:39:39;;;;;;;9.00;8.10;;;;;;;;;;5054935;28;24426;-60
2021/12/19 10:42:05;;;;;;;9.35;8.35;;;;;;;;;;5039865;28;24420;-60
2021/12/19 10:47:24;;;;;;;10.48;8.30;;;;;;;;;;5042024;28;24477;-60
2021/12/19 10:49:50;;;;;;;10.15;8.40;;;;;;;;;;5043400;28;24394;-60
2021/12/19 10:52:29;;;;;;;8.67;7.77;;;;;;;;;;5048714;28;24415;-60
2021/12/19 10:54:58;;;;;;;8.57;7.77;;;;;;;;;;5059548;28;24391;-58
2021/12/19 10:57:30;;;;;;;8.98;8.05;;;;;;;;;;5063018;28;24426;-58
2021/12/19 10:59:55;;;;;;;9.10;8.20;;;;;;;;;;5063311;28;24406;-58
2021/12/19 11:02:33;;;;;;;9.10;8.20;;;;;;;;;;5055621;28;24421;-59
2021/12/19 11:04:58;;;;;;;9.60;8.60;;;;;;;;;;5049349;28;24495;-59
2021/12/19 11:07:23;;;;;;;8.33;7.63;;;;;;;;;;5056159;28;25016;-58
2021/12/19 11:09:48;;;;;;;9.00;8.10;;;;;;;;;;5060833;28;24425;-59
2021/12/19 11:12:14;;;;;;;9.13;8.23;;;;;;;;;;5056237;28;24407;-58
2021/12/19 11:14:39;;;;;;;12.60;9.60;;;;;;;;;;5052236;28;25232;-58
2021/12/19 11:17:09;;;;;;;8.95;8.05;;;;;;;;;;5053441;28;24423;-58
2021/12/19 11:19:35;;;;;;;9.18;8.30;;;;;;;;;;5041943;28;24537;-59
2021/12/19 11:22:00;;;;;;;9.50;8.60;;;;;;;;;;5051302;28;24848;-58
2021/12/19 11:24:25;;;;;;;9.90;9.00;;;;;;;;;;5054556;28;24502;-58
2021/12/19 11:26:53;;;;;;;9.80;8.80;;;;;;;;;;5063016;28;24518;-58
2021/12/19 11:29:19;;;;;;;9.02;8.20;;;;;;;;;;5060047;28;24844;-58
2021/12/19 11:31:46;;;;;;;10.00;9.00;;;;;;;;;;5063059;28;24441;-58
2021/12/19 11:34:44;;;;;;;10.15;9.15;;;;;;;;;;5059521;28;24466;-58
2021/12/19 11:37:13;;;;;;;10.20;9.20;;;;;;;;;;5034028;28;25039;-58
2021/12/19 11:39:48;;;;;;;10.35;9.27;;;;;;;;;;5056587;28;24419;-57
2021/12/19 11:42:14;;;;;;;9.90;8.90;;;;;;;;;;5062349;28;24465;-58
2021/12/19 11:45:31;;;;;;;9.70;8.80;;;;;;;;;;5060080;28;24426;-58
2021/12/19 11:47:47;;;;;;;10.00;9.00;;;;;;;;;;5046302;28;24550;-60
2021/12/19 11:50:25;;;;;;;10.03;9.10;;;;;;;;;;5047767;28;24870;-59
2021/12/19 11:52:52;;;;;;;10.32;8.80;;;;;;;;;;5051273;28;24425;-59
2021/12/19 11:55:19;;;;;;;9.50;8.60;;;;;;;;;;5060234;28;25216;-58
2021/12/19 11:58:04;;;;;;;9.48;8.48;;;;;;;;;;5062182;28;24412;-59
2021/12/19 12:00:31;;;;;;;9.20;8.40;;;;;;;;;;5047448;28;24469;-59
2021/12/19 12:03:11;;;;;;;8.70;7.90;;;;;;;;;;5062153;28;24506;-59
2021/12/19 12:05:36;;;;;;;8.87;8.07;;;;;;;;;;5062020;28;24793;-59
2021/12/19 12:08:04;;;;;;;9.77;8.63;;;;;;;;;;5048227;28;24992;-59
2021/12/19 12:10:55;;;;;;;10.00;9.00;;;;;;;;;;5065374;28;24575;-59
2021/12/19 12:13:21;;;;;;;10.30;8.90;;;;;;;;;;5058571;28;24960;-58
2021/12/19 12:15:46;;;;;;;8.52;7.72;;;;;;;;;;5055526;28;24841;-59
2021/12/19 12:18:34;;;;;;;8.10;7.15;;;;;;;;;;5058298;28;24403;-59
2021/12/19 12:21:18;;;;;;;7.82;6.80;;;;;;;;;;5051241;28;24427;-59
2021/12/19 12:23:55;;;;;;;10.43;6.70;;;;;;;;;;5059951;28;24489;-59
2021/12/19 12:26:42;;;;;;;11.73;8.35;;;;;;;;;;5059034;28;24852;-59
2021/12/19 12:29:08;;;;;;;9.95;7.95;;;;;;;;;;5054533;28;24419;-59
2021/12/19 12:31:34;;;;;;;14.67;9.93;;;;;;;;;;5057231;28;24464;-59
2021/12/19 12:33:59;;;;;;;10.88;8.00;;;;;;;;;;5048771;28;24492;-59
2021/12/19 12:36:24;;;;;;;16.23;11.38;;;;;;;;;;5049680;28;24815;-59
2021/12/19 12:38:51;;;;;;;29.70;17.17;;;;;;;;;;5057620;28;24434;-60
2021/12/19 12:41:40;;;;;;;15.77;10.60;;;;;;;;;;5054553;28;24477;-58
2021/12/19 12:44:06;;;;;;;11.30;8.32;;;;;;;;;;5049195;28;24500;-58
2021/12/19 12:46:31;;;;;;;9.20;8.20;;;;;;;;;;5050144;28;24534;-60
2021/12/19 12:49:06;;;;;;;18.40;12.10;;;;;;;;;;5058676;28;24577;-60
2021/12/19 12:51:36;;;;;;;36.25;20.08;;;;;;;;;;5046555;28;25250;-58
2021/12/19 12:54:05;;;;;;;19.33;11.37;;;;;;;;;;5056405;28;25084;-58
2021/12/19 12:56:38;;;;;;;40.40;19.83;;;;;;;;;;5061107;28;24487;-58
2021/12/19 12:59:04;;;;;;;14.80;10.20;;;;;;;;;;5061460;28;24575;-58
2021/12/19 13:01:31;;;;;;;30.10;15.27;;;;;;;;;;5056528;28;25126;-59
2021/12/19 13:04:09;;;;;;;12.00;7.65;;;;;;;;;;5057557;28;25216;-58
2021/12/19 13:06:34;;;;;;;7.97;6.38;;;;;;;;;;5047288;28;24906;-58
2021/12/19 13:09:18;;;;;;;7.80;5.88;;;;;;;;;;5058322;28;24589;-59
2021/12/19 13:11:44;;;;;;;6.87;4.77;;;;;;;;;;5058610;28;24460;-59
2021/12/19 13:14:10;;;;;;;7.50;5.50;;;;;;;;;;5055113;28;24493;-59
2021/12/19 13:16:46;;;;;;;6.85;6.15;;;;;;;;;;5053141;28;24468;-59
2021/12/19 13:19:30;;;;;;;5.75;4.97;;;;;;;;;;5041993;28;24458;-59
2021/12/19 13:21:55;;;;;;;5.55;4.95;;;;;;;;;;5056201;28;24420;-59
2021/12/19 13:24:22;;;;;;;8.17;6.60;;;;;;;;;;5054414;28;24429;-59
2021/12/19 13:26:47;;;;;;;10.18;8.25;;;;;;;;;;5052552;28;24468;-59
2021/12/19 13:29:17;;;;;;;7.97;6.35;;;;;;;;;;5054446;28;24419;-59
2021/12/19 13:31:42;;;;;;;6.55;5.70;;;;;;;;;;5044070;28;24805;-58
2021/12/19 13:34:13;;;;;;;7.87;6.80;;;;;;;;;;5051263;28;24422;-59
2021/12/19 13:36:38;;;;;;;5.90;5.30;;;;;;;;;;5047419;28;24538;-58
2021/12/19 13:39:04;;;;;;;6.80;6.10;;;;;;;;;;5055712;28;24525;-58
2021/12/19 13:41:29;;;;;;;7.30;6.07;;;;;;;;;;5056329;28;24952;-58
2021/12/19 13:43:54;;;;;;;6.70;5.70;;;;;;;;;;5061382;28;25041;-60
2021/12/19 13:46:19;;;;;;;6.77;5.67;;;;;;;;;;5056084;28;24976;-59
2021/12/19 13:48:49;;;;;;;5.90;5.30;;;;;;;;;;5049096;28;24666;-60
2021/12/19 13:51:19;;;;;;;5.97;4.80;;;;;;;;;;5052289;28;24530;-58
2021/12/19 13:53:46;;;;;;;5.80;4.90;;;;;;;;;;5057712;28;24419;-59
2021/12/19 13:56:16;;;;;;;4.90;4.40;;;;;;;;;;5040616;28;24433;-58
2021/12/19 13:58:42;;;;;;;4.82;4.32;;;;;;;;;;5045024;28;24445;-58
2021/12/19 14:01:12;;;;;;;5.95;4.40;;;;;;;;;;5042820;28;24449;-58
2021/12/19 14:03:38;;;;;;;4.10;3.70;;;;;;;;;;5052799;28;24459;-59
2021/12/19 14:06:04;;;;;;;4.15;3.70;;;;;;;;;;5052557;28;24963;-58
2021/12/19 14:08:30;;;;;;;4.57;4.07;;;;;;;;;;5058442;28;24433;-58
2021/12/19 14:11:01;;;;;;;4.10;3.70;;;;;;;;;;5058454;28;24410;-59
2021/12/19 14:13:35;;;;;;;3.80;3.40;;;;;;;;;;5057733;28;24472;-58
2021/12/19 14:16:01;;;;;;;4.03;3.57;;;;;;;;;;5049561;28;24426;-58
2021/12/19 14:18:37;;;;;;;3.67;3.38;;;;;;;;;;5044698;28;24453;-58
2021/12/19 14:21:03;;;;;;;3.25;2.95;;;;;;;;;;5060825;28;24398;-58
2021/12/19 14:23:36;;;;;;;3.45;2.67;;;;;;;;;;5059885;28;24774;-59
2021/12/19 14:26:01;;;;;;;3.13;2.83;;;;;;;;;;5054042;28;24493;-58
2021/12/19 14:28:30;;;;;;;3.70;3.00;;;;;;;;;;5057885;28;24439;-59
2021/12/19 14:31:05;;;;;;;3.38;3.08;;;;;;;;;;5061565;28;24773;-58
2021/12/19 14:33:32;;;;;;;3.60;3.30;;;;;;;;;;5053115;28;24426;-58
2021/12/19 14:35:58;;;;;;;4.47;3.20;;;;;;;;;;5053891;28;24442;-59
2021/12/19 14:38:23;;;;;;;3.50;3.20;;;;;;;;;;5045040;28;24426;-59
2021/12/19 14:40:48;;;;;;;3.50;3.20;;;;;;;;;;5050078;28;24423;-59
2021/12/19 14:43:16;;;;;;;3.90;3.30;;;;;;;;;;5055860;28;24956;-58
2021/12/19 14:45:48;;;;;;;3.38;3.08;;;;;;;;;;5054711;28;24450;-57
2021/12/19 14:48:16;;;;;;;3.33;3.03;;;;;;;;;;5056153;28;24628;-58
2021/12/19 14:50:44;;;;;;;3.10;2.90;;;;;;;;;;5056657;28;24478;-58
2021/12/19 14:53:11;;;;;;;3.63;3.10;;;;;;;;;;5059557;28;24900;-58
2021/12/19 14:55:45;;;;;;;4.55;3.20;;;;;;;;;;5053534;28;24476;-58
2021/12/19 14:58:10;;;;;;;3.40;3.10;;;;;;;;;;5061760;28;24502;-58
2021/12/19 15:00:58;;;;;;;2.90;2.70;;;;;;;;;;5049827;28;24517;-59
2021/12/19 15:03:23;;;;;;;3.00;2.80;;;;;;;;;;5055919;28;24791;-58
2021/12/19 15:05:48;;;;;;;2.70;2.50;;;;;;;;;;5053400;28;24435;-58
2021/12/19 15:08:16;;;;;;;2.70;2.47;;;;;;;;;;5058187;28;24491;-60
2021/12/19 15:10:43;;;;;;;2.40;2.20;;;;;;;;;;5054645;28;24510;-60
2021/12/19 15:13:08;;;;;;;2.50;2.30;;;;;;;;;;5059379;28;24422;-60
2021/12/19 15:15:33;;;;;;;2.90;2.70;;;;;;;;;;5056199;28;24426;-58
2021/12/19 15:17:58;;;;;;;2.73;2.53;;;;;;;;;;5057879;28;25090;-60
2021/12/19 15:20:24;;;;;;;3.40;2.90;;;;;;;;;;5057630;28;25007;-58
2021/12/19 15:22:49;;;;;;;4.23;3.10;;;;;;;;;;5054417;28;24471;-61
2021/12/19 15:25:14;;;;;;;4.10;3.07;;;;;;;;;;5049097;28;24726;-58
2021/12/19 15:27:42;;;;;;;2.80;2.60;;;;;;;;;;5052320;28;24788;-60
2021/12/19 15:30:08;;;;;;;2.80;2.60;;;;;;;;;;5058239;28;25062;-59
2021/12/19 15:32:34;;;;;;;2.63;2.30;;;;;;;;;;5072994;28;24568;-58
2021/12/19 15:34:59;;;;;;;2.63;2.42;;;;;;;;;;5054781;28;24781;-58
2021/12/19 15:37:24;;;;;;;2.90;2.40;;;;;;;;;;5056944;28;24418;-59
2021/12/19 15:39:49;;;;;;;2.60;2.40;;;;;;;;;;5053775;28;24407;-59
2021/12/19 15:42:15;;;;;;;3.00;2.80;;;;;;;;;;5061199;28;24418;-59
2021/12/19 15:44:41;;;;;;;2.30;2.00;;;;;;;;;;5058947;28;25079;-59